sensor_id;sensor_type;location;lat;lon;timestamp;temperature;humidity
7254;DHT22;4060;49.186;9.226;2023-07-13T00:00:50;28.50;38.70
7254;DHT22;4060;49.186;9.226;2023-07-13T00:03:19;28.40;38.70
7254;DHT22;4060;49.186;9.226;2023-07-13T00:05:57;28.40;38.70
7254;DHT22;4060;49.186;9.226;2023-07-13T00:08:31;28.40;38.70
7254;DHT22;4060;49.186;9.226;2023-07-13T00:11:02;28.40;38.80
7254;DHT22;4060;49.186;9.226;2023-07-13T00:13:33;28.30;38.70
7254;DHT22;4060;49.186;9.226;2023-07-13T00:16:07;28.30;38.70
7254;DHT22;4060;49.186;9.226;2023-07-13T00:18:37;28.30;38.80
7254;DHT22;4060;49.186;9.226;2023-07-13T00:21:07;28.30;38.80
7254;DHT22;4060;49.186;9.226;2023-07-13T00:23:40;28.30;38.80
7254;DHT22;4060;49.186;9.226;2023-07-13T00:26:11;28.20;38.90
7254;DHT22;4060;49.186;9.226;2023-07-13T00:28:41;28.20;38.90
7254;DHT22;4060;49.186;9.226;2023-07-13T00:31:13;28.20;38.90
7254;DHT22;4060;49.186;9.226;2023-07-13T00:33:43;28.20;38.90
7254;DHT22;4060;49.186;9.226;2023-07-13T00:36:13;28.10;38.90
7254;DHT22;4060;49.186;9.226;2023-07-13T00:38:43;28.10;38.90
7254;DHT22;4060;49.186;9.226;2023-07-13T00:41:12;28.10;39.50
7254;DHT22;4060;49.186;9.226;2023-07-13T00:43:42;28.10;39.00
7254;DHT22;4060;49.186;9.226;2023-07-13T00:46:18;28.10;39.00
7254;DHT22;4060;49.186;9.226;2023-07-13T00:48:49;28.00;39.00
7254;DHT22;4060;49.186;9.226;2023-07-13T00:51:26;28.00;39.00
7254;DHT22;4060;49.186;9.226;2023-07-13T00:53:59;28.00;39.00
7254;DHT22;4060;49.186;9.226;2023-07-13T00:56:30;28.00;39.10
7254;DHT22;4060;49.186;9.226;2023-07-13T00:59:00;28.00;39.10
7254;DHT22;4060;49.186;9.226;2023-07-13T01:01:33;28.00;39.10
7254;DHT22;4060;49.186;9.226;2023-07-13T01:04:04;27.90;39.10
7254;DHT22;4060;49.186;9.226;2023-07-13T01:06:35;27.90;39.10
7254;DHT22;4060;49.186;9.226;2023-07-13T01:09:07;27.90;39.00
7254;DHT22;4060;49.186;9.226;2023-07-13T01:11:37;27.90;39.00
7254;DHT22;4060;49.186;9.226;2023-07-13T01:14:07;27.80;39.00
7254;DHT22;4060;49.186;9.226;2023-07-13T01:16:39;27.80;39.00
7254;DHT22;4060;49.186;9.226;2023-07-13T01:19:20;27.80;38.90
7254;DHT22;4060;49.186;9.226;2023-07-13T01:21:54;27.80;38.90
7254;DHT22;4060;49.186;9.226;2023-07-13T01:24:24;27.70;38.90
7254;DHT22;4060;49.186;9.226;2023-07-13T01:26:53;27.70;38.80
7254;DHT22;4060;49.186;9.226;2023-07-13T01:29:22;27.70;38.80
7254;DHT22;4060;49.186;9.226;2023-07-13T01:31:52;27.70;38.80
7254;DHT22;4060;49.186;9.226;2023-07-13T01:34:21;27.70;38.80
7254;DHT22;4060;49.186;9.226;2023-07-13T01:36:59;27.60;38.70
7254;DHT22;4060;49.186;9.226;2023-07-13T01:39:29;27.60;38.70
7254;DHT22;4060;49.186;9.226;2023-07-13T01:41:59;27.60;38.70
7254;DHT22;4060;49.186;9.226;2023-07-13T01:44:28;27.60;38.70
7254;DHT22;4060;49.186;9.226;2023-07-13T01:46:58;27.60;38.70
7254;DHT22;4060;49.186;9.226;2023-07-13T01:49:27;27.60;38.70
7254;DHT22;4060;49.186;9.226;2023-07-13T01:51:58;27.50;38.70
7254;DHT22;4060;49.186;9.226;2023-07-13T01:54:27;27.50;38.60
7254;DHT22;4060;49.186;9.226;2023-07-13T01:56:57;27.50;38.60
7254;DHT22;4060;49.186;9.226;2023-07-13T01:59:26;27.50;38.70
7254;DHT22;4060;49.186;9.226;2023-07-13T02:01:56;27.50;38.70
7254;DHT22;4060;49.186;9.226;2023-07-13T02:04:25;27.40;38.60
7254;DHT22;4060;49.186;9.226;2023-07-13T02:06:55;27.40;38.60
7254;DHT22;4060;49.186;9.226;2023-07-13T02:09:26;27.40;38.60
7254;DHT22;4060;49.186;9.226;2023-07-13T02:11:55;27.40;38.60
7254;DHT22;4060;49.186;9.226;2023-07-13T02:14:27;27.30;38.60
7254;DHT22;4060;49.186;9.226;2023-07-13T02:16:57;27.30;38.60
7254;DHT22;4060;49.186;9.226;2023-07-13T02:19:26;27.30;38.60
7254;DHT22;4060;49.186;9.226;2023-07-13T02:21:56;27.30;38.60
7254;DHT22;4060;49.186;9.226;2023-07-13T02:24:28;27.30;38.60
7254;DHT22;4060;49.186;9.226;2023-07-13T02:26:57;27.30;38.70
7254;DHT22;4060;49.186;9.226;2023-07-13T02:29:27;27.20;38.70
7254;DHT22;4060;49.186;9.226;2023-07-13T02:31:57;27.20;38.70
7254;DHT22;4060;49.186;9.226;2023-07-13T02:34:27;27.20;38.70
7254;DHT22;4060;49.186;9.226;2023-07-13T02:36:56;27.20;38.70
7254;DHT22;4060;49.186;9.226;2023-07-13T02:39:27;27.10;38.70
7254;DHT22;4060;49.186;9.226;2023-07-13T02:42:00;27.10;38.70
7254;DHT22;4060;49.186;9.226;2023-07-13T02:44:29;27.10;39.30
7254;DHT22;4060;49.186;9.226;2023-07-13T02:46:58;27.10;38.80
7254;DHT22;4060;49.186;9.226;2023-07-13T02:49:28;27.10;38.90
7254;DHT22;4060;49.186;9.226;2023-07-13T02:51:57;27.00;38.90
7254;DHT22;4060;49.186;9.226;2023-07-13T02:54:30;27.00;38.90
7254;DHT22;4060;49.186;9.226;2023-07-13T02:56:59;27.00;39.00
7254;DHT22;4060;49.186;9.226;2023-07-13T02:59:29;27.00;39.00
7254;DHT22;4060;49.186;9.226;2023-07-13T03:01:58;27.00;39.00
7254;DHT22;4060;49.186;9.226;2023-07-13T03:04:28;27.00;39.10
7254;DHT22;4060;49.186;9.226;2023-07-13T03:06:58;26.90;39.10
7254;DHT22;4060;49.186;9.226;2023-07-13T03:09:28;26.90;39.20
7254;DHT22;4060;49.186;9.226;2023-07-13T03:11:58;26.90;39.20
7254;DHT22;4060;49.186;9.226;2023-07-13T03:14:27;26.90;39.20
7254;DHT22;4060;49.186;9.226;2023-07-13T03:16:57;26.80;39.20
7254;DHT22;4060;49.186;9.226;2023-07-13T03:19:26;26.80;39.20
7254;DHT22;4060;49.186;9.226;2023-07-13T03:21:56;26.80;39.30
7254;DHT22;4060;49.186;9.226;2023-07-13T03:24:27;26.80;39.30
7254;DHT22;4060;49.186;9.226;2023-07-13T03:26:56;26.70;39.30
7254;DHT22;4060;49.186;9.226;2023-07-13T03:29:26;26.80;39.40
7254;DHT22;4060;49.186;9.226;2023-07-13T03:31:55;26.70;39.40
7254;DHT22;4060;49.186;9.226;2023-07-13T03:34:25;26.70;39.40
7254;DHT22;4060;49.186;9.226;2023-07-13T03:36:55;26.70;39.40
7254;DHT22;4060;49.186;9.226;2023-07-13T03:39:24;26.60;39.50
7254;DHT22;4060;49.186;9.226;2023-07-13T03:41:55;26.60;39.50
7254;DHT22;4060;49.186;9.226;2023-07-13T03:44:25;26.60;39.50
7254;DHT22;4060;49.186;9.226;2023-07-13T03:46:54;26.60;39.60
7254;DHT22;4060;49.186;9.226;2023-07-13T03:49:23;26.60;39.60
7254;DHT22;4060;49.186;9.226;2023-07-13T03:51:53;26.50;39.50
7254;DHT22;4060;49.186;9.226;2023-07-13T03:54:22;26.50;39.60
7254;DHT22;4060;49.186;9.226;2023-07-13T03:57:06;26.50;39.60
7254;DHT22;4060;49.186;9.226;2023-07-13T03:59:52;26.50;39.80
7254;DHT22;4060;49.186;9.226;2023-07-13T04:02:21;26.50;39.80
7254;DHT22;4060;49.186;9.226;2023-07-13T04:04:50;26.50;39.80
7254;DHT22;4060;49.186;9.226;2023-07-13T04:07:20;26.40;39.80
7254;DHT22;4060;49.186;9.226;2023-07-13T04:09:50;26.40;39.80
7254;DHT22;4060;49.186;9.226;2023-07-13T04:12:22;26.40;39.90
7254;DHT22;4060;49.186;9.226;2023-07-13T04:14:51;26.40;40.00
7254;DHT22;4060;49.186;9.226;2023-07-13T04:17:21;26.40;39.90
7254;DHT22;4060;49.186;9.226;2023-07-13T04:19:50;26.30;39.90
7254;DHT22;4060;49.186;9.226;2023-07-13T04:22:20;26.30;40.00
7254;DHT22;4060;49.186;9.226;2023-07-13T04:24:49;26.30;40.00
7254;DHT22;4060;49.186;9.226;2023-07-13T04:27:20;26.30;40.00
7254;DHT22;4060;49.186;9.226;2023-07-13T04:29:50;26.30;40.00
7254;DHT22;4060;49.186;9.226;2023-07-13T04:32:19;26.20;40.00
7254;DHT22;4060;49.186;9.226;2023-07-13T04:34:49;26.20;40.00
7254;DHT22;4060;49.186;9.226;2023-07-13T04:37:21;26.20;40.10
7254;DHT22;4060;49.186;9.226;2023-07-13T04:39:51;26.20;40.10
7254;DHT22;4060;49.186;9.226;2023-07-13T04:42:22;26.20;40.20
7254;DHT22;4060;49.186;9.226;2023-07-13T04:44:52;26.20;40.20
7254;DHT22;4060;49.186;9.226;2023-07-13T04:47:23;26.10;40.20
7254;DHT22;4060;49.186;9.226;2023-07-13T04:49:53;26.10;40.20
7254;DHT22;4060;49.186;9.226;2023-07-13T04:52:22;26.10;40.20
7254;DHT22;4060;49.186;9.226;2023-07-13T04:54:51;26.10;40.30
7254;DHT22;4060;49.186;9.226;2023-07-13T04:57:22;26.00;40.30
7254;DHT22;4060;49.186;9.226;2023-07-13T04:59:52;26.10;40.40
7254;DHT22;4060;49.186;9.226;2023-07-13T05:02:21;26.10;40.40
7254;DHT22;4060;49.186;9.226;2023-07-13T05:04:51;26.00;40.40
7254;DHT22;4060;49.186;9.226;2023-07-13T05:07:22;26.00;40.40
7254;DHT22;4060;49.186;9.226;2023-07-13T05:09:51;26.00;40.40
7254;DHT22;4060;49.186;9.226;2023-07-13T05:12:23;26.00;40.40
7254;DHT22;4060;49.186;9.226;2023-07-13T05:14:52;26.00;40.40
7254;DHT22;4060;49.186;9.226;2023-07-13T05:17:21;26.00;40.50
7254;DHT22;4060;49.186;9.226;2023-07-13T05:19:51;26.00;40.50
7254;DHT22;4060;49.186;9.226;2023-07-13T05:22:21;26.00;40.50
7254;DHT22;4060;49.186;9.226;2023-07-13T05:24:50;26.00;40.60
7254;DHT22;4060;49.186;9.226;2023-07-13T05:27:18;25.90;40.60
7254;DHT22;4060;49.186;9.226;2023-07-13T05:29:49;25.90;40.60
7254;DHT22;4060;49.186;9.226;2023-07-13T05:32:19;25.90;40.70
7254;DHT22;4060;49.186;9.226;2023-07-13T05:34:48;25.90;40.70
7254;DHT22;4060;49.186;9.226;2023-07-13T05:37:18;25.90;40.80
7254;DHT22;4060;49.186;9.226;2023-07-13T05:39:48;25.90;40.80
7254;DHT22;4060;49.186;9.226;2023-07-13T05:42:17;25.90;40.80
7254;DHT22;4060;49.186;9.226;2023-07-13T05:44:48;25.80;40.80
7254;DHT22;4060;49.186;9.226;2023-07-13T05:47:17;25.80;40.80
7254;DHT22;4060;49.186;9.226;2023-07-13T05:49:46;25.80;40.90
7254;DHT22;4060;49.186;9.226;2023-07-13T05:52:15;25.80;40.90
7254;DHT22;4060;49.186;9.226;2023-07-13T05:54:45;25.80;41.00
7254;DHT22;4060;49.186;9.226;2023-07-13T05:57:14;25.80;40.90
7254;DHT22;4060;49.186;9.226;2023-07-13T05:59:43;25.80;40.90
7254;DHT22;4060;49.186;9.226;2023-07-13T06:02:14;25.80;41.00
7254;DHT22;4060;49.186;9.226;2023-07-13T06:04:43;25.80;41.20
7254;DHT22;4060;49.186;9.226;2023-07-13T06:07:13;25.80;41.20
7254;DHT22;4060;49.186;9.226;2023-07-13T06:09:43;25.80;41.30
7254;DHT22;4060;49.186;9.226;2023-07-13T06:12:12;25.80;41.40
7254;DHT22;4060;49.186;9.226;2023-07-13T06:14:41;25.80;41.40
7254;DHT22;4060;49.186;9.226;2023-07-13T06:17:10;25.80;41.50
7254;DHT22;4060;49.186;9.226;2023-07-13T06:19:41;25.80;41.50
7254;DHT22;4060;49.186;9.226;2023-07-13T06:22:11;25.80;41.50
7254;DHT22;4060;49.186;9.226;2023-07-13T06:24:40;25.70;41.50
7254;DHT22;4060;49.186;9.226;2023-07-13T06:27:10;25.70;41.50
7254;DHT22;4060;49.186;9.226;2023-07-13T06:29:39;25.70;41.40
7254;DHT22;4060;49.186;9.226;2023-07-13T06:32:09;25.70;41.50
7254;DHT22;4060;49.186;9.226;2023-07-13T06:34:38;25.70;41.50
7254;DHT22;4060;49.186;9.226;2023-07-13T06:37:09;25.70;41.60
7254;DHT22;4060;49.186;9.226;2023-07-13T06:39:39;25.70;41.60
7254;DHT22;4060;49.186;9.226;2023-07-13T06:42:08;25.70;41.70
7254;DHT22;4060;49.186;9.226;2023-07-13T06:44:38;25.60;41.60
7254;DHT22;4060;49.186;9.226;2023-07-13T06:47:07;25.60;41.70
7254;DHT22;4060;49.186;9.226;2023-07-13T06:49:37;25.60;41.70
7254;DHT22;4060;49.186;9.226;2023-07-13T06:52:08;25.60;41.70
7254;DHT22;4060;49.186;9.226;2023-07-13T06:54:38;25.60;41.80
7254;DHT22;4060;49.186;9.226;2023-07-13T06:57:07;25.60;41.90
7254;DHT22;4060;49.186;9.226;2023-07-13T06:59:37;25.60;42.10
7254;DHT22;4060;49.186;9.226;2023-07-13T07:02:07;25.60;42.10
7254;DHT22;4060;49.186;9.226;2023-07-13T07:04:37;25.60;42.00
7254;DHT22;4060;49.186;9.226;2023-07-13T07:07:08;25.60;41.90
7254;DHT22;4060;49.186;9.226;2023-07-13T07:09:38;25.60;41.80
7254;DHT22;4060;49.186;9.226;2023-07-13T07:12:07;25.60;41.80
7254;DHT22;4060;49.186;9.226;2023-07-13T07:14:37;25.60;41.80
7254;DHT22;4060;49.186;9.226;2023-07-13T07:17:06;25.60;41.80
7254;DHT22;4060;49.186;9.226;2023-07-13T07:19:36;25.70;41.90
7254;DHT22;4060;49.186;9.226;2023-07-13T07:22:05;25.70;41.90
7254;DHT22;4060;49.186;9.226;2023-07-13T07:24:37;25.80;41.90
7254;DHT22;4060;49.186;9.226;2023-07-13T07:27:06;25.70;41.80
7254;DHT22;4060;49.186;9.226;2023-07-13T07:29:36;25.80;41.80
7254;DHT22;4060;49.186;9.226;2023-07-13T07:32:05;25.80;41.70
7254;DHT22;4060;49.186;9.226;2023-07-13T07:34:35;25.80;41.70
7254;DHT22;4060;49.186;9.226;2023-07-13T07:37:05;25.80;41.70
7254;DHT22;4060;49.186;9.226;2023-07-13T07:39:36;25.90;41.80
7254;DHT22;4060;49.186;9.226;2023-07-13T07:42:06;25.90;41.70
7254;DHT22;4060;49.186;9.226;2023-07-13T07:44:35;26.00;41.70
7254;DHT22;4060;49.186;9.226;2023-07-13T07:47:05;26.00;41.50
7254;DHT22;4060;49.186;9.226;2023-07-13T07:49:35;26.00;41.50
7254;DHT22;4060;49.186;9.226;2023-07-13T07:52:06;26.00;41.40
7254;DHT22;4060;49.186;9.226;2023-07-13T07:54:37;26.10;41.30
7254;DHT22;4060;49.186;9.226;2023-07-13T07:57:07;26.20;41.30
7254;DHT22;4060;49.186;9.226;2023-07-13T07:59:37;26.20;41.20
7254;DHT22;4060;49.186;9.226;2023-07-13T08:02:08;26.20;41.10
7254;DHT22;4060;49.186;9.226;2023-07-13T08:04:37;26.20;41.50
7254;DHT22;4060;49.186;9.226;2023-07-13T08:07:10;26.30;40.90
7254;DHT22;4060;49.186;9.226;2023-07-13T08:09:40;26.40;40.90
7254;DHT22;4060;49.186;9.226;2023-07-13T08:12:10;26.40;40.80
7254;DHT22;4060;49.186;9.226;2023-07-13T08:14:39;26.40;40.70
7254;DHT22;4060;49.186;9.226;2023-07-13T08:17:08;26.50;40.70
7254;DHT22;4060;49.186;9.226;2023-07-13T08:19:38;26.50;40.60
7254;DHT22;4060;49.186;9.226;2023-07-13T08:22:08;26.60;40.60
7254;DHT22;4060;49.186;9.226;2023-07-13T08:24:39;26.60;40.50
7254;DHT22;4060;49.186;9.226;2023-07-13T08:27:09;26.60;40.30
7254;DHT22;4060;49.186;9.226;2023-07-13T08:29:40;26.70;40.30
7254;DHT22;4060;49.186;9.226;2023-07-13T08:32:09;26.70;40.10
7254;DHT22;4060;49.186;9.226;2023-07-13T08:34:38;26.80;40.00
7254;DHT22;4060;49.186;9.226;2023-07-13T08:37:09;26.80;39.90
7254;DHT22;4060;49.186;9.226;2023-07-13T08:39:41;26.90;39.90
7254;DHT22;4060;49.186;9.226;2023-07-13T08:42:16;26.90;39.70
7254;DHT22;4060;49.186;9.226;2023-07-13T08:45:00;27.00;39.70
7254;DHT22;4060;49.186;9.226;2023-07-13T08:47:37;27.00;39.50
7254;DHT22;4060;49.186;9.226;2023-07-13T08:50:12;27.00;39.20
7254;DHT22;4060;49.186;9.226;2023-07-13T08:52:44;27.00;38.90
7254;DHT22;4060;49.186;9.226;2023-07-13T08:55:17;27.10;38.80
7254;DHT22;4060;49.186;9.226;2023-07-13T08:57:54;27.20;38.70
7254;DHT22;4060;49.186;9.226;2023-07-13T09:00:37;27.20;38.50
7254;DHT22;4060;49.186;9.226;2023-07-13T09:03:18;27.30;38.40
7254;DHT22;4060;49.186;9.226;2023-07-13T09:05:53;27.30;38.40
7254;DHT22;4060;49.186;9.226;2023-07-13T09:08:46;27.30;38.30
7254;DHT22;4060;49.186;9.226;2023-07-13T09:11:28;27.30;38.10
7254;DHT22;4060;49.186;9.226;2023-07-13T09:14:06;27.30;38.00
7254;DHT22;4060;49.186;9.226;2023-07-13T09:16:46;27.40;38.00
7254;DHT22;4060;49.186;9.226;2023-07-13T09:19:23;27.40;37.90
7254;DHT22;4060;49.186;9.226;2023-07-13T09:21:56;27.40;37.80
7254;DHT22;4060;49.186;9.226;2023-07-13T09:24:34;27.50;37.70
7254;DHT22;4060;49.186;9.226;2023-07-13T09:27:17;27.50;37.60
7254;DHT22;4060;49.186;9.226;2023-07-13T09:29:51;27.50;37.40
7254;DHT22;4060;49.186;9.226;2023-07-13T09:32:25;27.50;37.40
7254;DHT22;4060;49.186;9.226;2023-07-13T09:34:55;27.60;37.30
7254;DHT22;4060;49.186;9.226;2023-07-13T09:37:30;27.60;37.20
7254;DHT22;4060;49.186;9.226;2023-07-13T09:40:00;27.60;37.10
7254;DHT22;4060;49.186;9.226;2023-07-13T09:42:33;27.60;37.00
7254;DHT22;4060;49.186;9.226;2023-07-13T09:45:03;27.70;36.80
7254;DHT22;4060;49.186;9.226;2023-07-13T09:47:39;27.70;36.60
7254;DHT22;4060;49.186;9.226;2023-07-13T09:50:16;27.70;36.40
7254;DHT22;4060;49.186;9.226;2023-07-13T09:52:46;27.80;36.30
7254;DHT22;4060;49.186;9.226;2023-07-13T09:55:28;27.80;36.30
7254;DHT22;4060;49.186;9.226;2023-07-13T09:58:03;27.80;36.00
7254;DHT22;4060;49.186;9.226;2023-07-13T10:00:34;27.90;36.00
7254;DHT22;4060;49.186;9.226;2023-07-13T10:03:05;27.90;35.90
7254;DHT22;4060;49.186;9.226;2023-07-13T10:05:45;28.00;36.00
7254;DHT22;4060;49.186;9.226;2023-07-13T10:08:24;28.00;35.90
7254;DHT22;4060;49.186;9.226;2023-07-13T10:10:59;28.00;35.70
7254;DHT22;4060;49.186;9.226;2023-07-13T10:13:35;28.00;35.70
7254;DHT22;4060;49.186;9.226;2023-07-13T10:16:05;28.10;35.70
7254;DHT22;4060;49.186;9.226;2023-07-13T10:18:41;28.10;35.60
7254;DHT22;4060;49.186;9.226;2023-07-13T10:21:16;28.10;35.50
7254;DHT22;4060;49.186;9.226;2023-07-13T10:23:50;28.20;35.40
7254;DHT22;4060;49.186;9.226;2023-07-13T10:26:25;28.20;35.30
7254;DHT22;4060;49.186;9.226;2023-07-13T10:28:59;28.20;35.20
7254;DHT22;4060;49.186;9.226;2023-07-13T10:31:31;28.30;35.20
7254;DHT22;4060;49.186;9.226;2023-07-13T10:34:01;28.30;35.00
7254;DHT22;4060;49.186;9.226;2023-07-13T10:36:34;28.30;34.90
7254;DHT22;4060;49.186;9.226;2023-07-13T10:39:13;28.30;34.80
7254;DHT22;4060;49.186;9.226;2023-07-13T10:41:46;28.40;34.70
7254;DHT22;4060;49.186;9.226;2023-07-13T10:44:27;28.40;34.60
7254;DHT22;4060;49.186;9.226;2023-07-13T10:46:58;28.50;34.50
7254;DHT22;4060;49.186;9.226;2023-07-13T10:49:30;28.50;34.40
7254;DHT22;4060;49.186;9.226;2023-07-13T10:52:00;28.50;34.20
7254;DHT22;4060;49.186;9.226;2023-07-13T10:54:32;28.50;34.10
7254;DHT22;4060;49.186;9.226;2023-07-13T10:57:17;28.60;34.00
7254;DHT22;4060;49.186;9.226;2023-07-13T11:00:17;28.60;33.90
7254;DHT22;4060;49.186;9.226;2023-07-13T11:02:58;28.60;33.70
7254;DHT22;4060;49.186;9.226;2023-07-13T11:05:31;28.70;33.80
7254;DHT22;4060;49.186;9.226;2023-07-13T11:08:15;28.70;33.80
7254;DHT22;4060;49.186;9.226;2023-07-13T11:10:51;28.70;33.70
7254;DHT22;4060;49.186;9.226;2023-07-13T11:16:46;28.70;33.60
7254;DHT22;4060;49.186;9.226;2023-07-13T11:19:37;28.80;33.60
7254;DHT22;4060;49.186;9.226;2023-07-13T11:22:37;28.80;33.60
7254;DHT22;4060;49.186;9.226;2023-07-13T11:25:29;28.80;33.50
7254;DHT22;4060;49.186;9.226;2023-07-13T11:28:25;28.90;33.50
7254;DHT22;4060;49.186;9.226;2023-07-13T11:33:57;28.90;33.80
7254;DHT22;4060;49.186;9.226;2023-07-13T11:36:36;28.90;33.30
7254;DHT22;4060;49.186;9.226;2023-07-13T11:39:18;29.00;33.10
7254;DHT22;4060;49.186;9.226;2023-07-13T11:41:51;29.00;32.80
7254;DHT22;4060;49.186;9.226;2023-07-13T11:44:24;29.00;32.70
7254;DHT22;4060;49.186;9.226;2023-07-13T11:46:55;29.10;32.50
7254;DHT22;4060;49.186;9.226;2023-07-13T11:49:29;29.10;32.40
7254;DHT22;4060;49.186;9.226;2023-07-13T11:52:00;29.10;32.50
7254;DHT22;4060;49.186;9.226;2023-07-13T11:54:41;29.20;32.40
7254;DHT22;4060;49.186;9.226;2023-07-13T11:57:25;29.20;32.30
7254;DHT22;4060;49.186;9.226;2023-07-13T11:59:55;29.30;32.30
7254;DHT22;4060;49.186;9.226;2023-07-13T12:02:32;29.30;32.20
7254;DHT22;4060;49.186;9.226;2023-07-13T12:05:03;29.30;32.00
7254;DHT22;4060;49.186;9.226;2023-07-13T12:07:34;29.30;32.00
7254;DHT22;4060;49.186;9.226;2023-07-13T12:10:17;29.40;31.90
7254;DHT22;4060;49.186;9.226;2023-07-13T12:12:50;29.40;31.70
7254;DHT22;4060;49.186;9.226;2023-07-13T12:15:21;29.40;31.80
7254;DHT22;4060;49.186;9.226;2023-07-13T12:17:51;29.50;31.80
7254;DHT22;4060;49.186;9.226;2023-07-13T12:20:22;29.50;31.80
7254;DHT22;4060;49.186;9.226;2023-07-13T12:22:54;29.50;31.80
7254;DHT22;4060;49.186;9.226;2023-07-13T12:25:26;29.50;31.70
7254;DHT22;4060;49.186;9.226;2023-07-13T12:27:56;29.50;31.70
7254;DHT22;4060;49.186;9.226;2023-07-13T12:30:28;29.60;31.70
7254;DHT22;4060;49.186;9.226;2023-07-13T12:33:02;29.60;31.80
7254;DHT22;4060;49.186;9.226;2023-07-13T12:35:42;29.60;31.80
7254;DHT22;4060;49.186;9.226;2023-07-13T12:38:13;29.60;31.80
7254;DHT22;4060;49.186;9.226;2023-07-13T12:40:45;29.60;31.90
7254;DHT22;4060;49.186;9.226;2023-07-13T12:43:20;29.70;31.90
7254;DHT22;4060;49.186;9.226;2023-07-13T12:45:59;29.70;31.90
7254;DHT22;4060;49.186;9.226;2023-07-13T12:48:30;29.70;31.80
7254;DHT22;4060;49.186;9.226;2023-07-13T12:51:01;29.70;31.80
7254;DHT22;4060;49.186;9.226;2023-07-13T12:53:31;29.70;31.70
7254;DHT22;4060;49.186;9.226;2023-07-13T12:56:03;29.70;31.70
7254;DHT22;4060;49.186;9.226;2023-07-13T12:58:37;29.80;31.60
7254;DHT22;4060;49.186;9.226;2023-07-13T13:01:09;29.80;31.50
7254;DHT22;4060;49.186;9.226;2023-07-13T13:03:40;29.80;31.50
7254;DHT22;4060;49.186;9.226;2023-07-13T13:06:24;29.90;31.50
7254;DHT22;4060;49.186;9.226;2023-07-13T13:08:54;29.90;31.30
7254;DHT22;4060;49.186;9.226;2023-07-13T13:11:28;29.90;31.40
7254;DHT22;4060;49.186;9.226;2023-07-13T13:14:02;29.90;31.90
7254;DHT22;4060;49.186;9.226;2023-07-13T13:16:52;29.90;31.40
7254;DHT22;4060;49.186;9.226;2023-07-13T13:19:24;29.90;31.40
7254;DHT22;4060;49.186;9.226;2023-07-13T13:21:55;29.90;31.40
7254;DHT22;4060;49.186;9.226;2023-07-13T13:24:27;29.90;31.30
7254;DHT22;4060;49.186;9.226;2023-07-13T13:26:59;30.00;31.30
7254;DHT22;4060;49.186;9.226;2023-07-13T13:29:31;30.00;31.20
7254;DHT22;4060;49.186;9.226;2023-07-13T13:32:00;30.00;31.10
7254;DHT22;4060;49.186;9.226;2023-07-13T13:34:30;30.00;31.10
7254;DHT22;4060;49.186;9.226;2023-07-13T13:36:59;30.00;31.10
7254;DHT22;4060;49.186;9.226;2023-07-13T13:39:32;30.00;31.00
7254;DHT22;4060;49.186;9.226;2023-07-13T13:42:08;30.10;31.00
7254;DHT22;4060;49.186;9.226;2023-07-13T13:44:38;30.10;31.00
7254;DHT22;4060;49.186;9.226;2023-07-13T13:47:21;30.10;31.10
7254;DHT22;4060;49.186;9.226;2023-07-13T13:49:52;30.10;31.00
7254;DHT22;4060;49.186;9.226;2023-07-13T13:52:21;30.10;31.10
7254;DHT22;4060;49.186;9.226;2023-07-13T13:54:51;30.10;31.00
7254;DHT22;4060;49.186;9.226;2023-07-13T13:57:30;30.10;30.90
7254;DHT22;4060;49.186;9.226;2023-07-13T14:00:01;30.20;30.80
7254;DHT22;4060;49.186;9.226;2023-07-13T14:02:30;30.20;30.90
7254;DHT22;4060;49.186;9.226;2023-07-13T14:05:01;30.10;30.80
7254;DHT22;4060;49.186;9.226;2023-07-13T14:07:32;30.20;30.80
7254;DHT22;4060;49.186;9.226;2023-07-13T14:10:01;30.20;31.30
7254;DHT22;4060;49.186;9.226;2023-07-13T14:12:32;30.20;30.70
7254;DHT22;4060;49.186;9.226;2023-07-13T14:15:02;30.20;30.80
7254;DHT22;4060;49.186;9.226;2023-07-13T14:17:32;30.20;30.80
7254;DHT22;4060;49.186;9.226;2023-07-13T14:20:01;30.20;30.80
7254;DHT22;4060;49.186;9.226;2023-07-13T14:22:31;30.20;30.80
7254;DHT22;4060;49.186;9.226;2023-07-13T14:25:01;30.20;30.80
7254;DHT22;4060;49.186;9.226;2023-07-13T14:27:32;30.30;30.80
7254;DHT22;4060;49.186;9.226;2023-07-13T14:30:02;30.30;30.80
7254;DHT22;4060;49.186;9.226;2023-07-13T14:32:32;30.30;30.80
7254;DHT22;4060;49.186;9.226;2023-07-13T14:35:01;30.30;30.80
7254;DHT22;4060;49.186;9.226;2023-07-13T14:37:30;30.30;30.70
7254;DHT22;4060;49.186;9.226;2023-07-13T14:40:00;30.30;30.70
7254;DHT22;4060;49.186;9.226;2023-07-13T14:42:32;30.30;30.60
7254;DHT22;4060;49.186;9.226;2023-07-13T14:45:02;30.30;30.60
7254;DHT22;4060;49.186;9.226;2023-07-13T14:47:32;30.30;30.50
7254;DHT22;4060;49.186;9.226;2023-07-13T14:50:01;30.30;30.40
7254;DHT22;4060;49.186;9.226;2023-07-13T14:52:32;30.30;31.00
7254;DHT22;4060;49.186;9.226;2023-07-13T14:55:01;30.40;30.50
7254;DHT22;4060;49.186;9.226;2023-07-13T14:57:32;30.40;30.50
7254;DHT22;4060;49.186;9.226;2023-07-13T15:00:02;30.40;30.40
7254;DHT22;4060;49.186;9.226;2023-07-13T15:02:33;30.40;30.40
7254;DHT22;4060;49.186;9.226;2023-07-13T15:05:14;30.40;30.40
7254;DHT22;4060;49.186;9.226;2023-07-13T15:07:43;30.40;30.20
7254;DHT22;4060;49.186;9.226;2023-07-13T15:10:18;30.40;30.30
7254;DHT22;4060;49.186;9.226;2023-07-13T15:12:50;30.40;30.20
7254;DHT22;4060;49.186;9.226;2023-07-13T15:15:20;30.40;30.20
7254;DHT22;4060;49.186;9.226;2023-07-13T15:17:50;30.40;30.10
7254;DHT22;4060;49.186;9.226;2023-07-13T15:20:25;30.40;30.10
7254;DHT22;4060;49.186;9.226;2023-07-13T15:22:55;30.40;30.10
7254;DHT22;4060;49.186;9.226;2023-07-13T15:25:28;30.40;30.10
7254;DHT22;4060;49.186;9.226;2023-07-13T15:28:01;30.40;30.10
7254;DHT22;4060;49.186;9.226;2023-07-13T15:30:35;30.40;30.10
7254;DHT22;4060;49.186;9.226;2023-07-13T15:33:12;30.40;30.10
7254;DHT22;4060;49.186;9.226;2023-07-13T15:35:44;30.40;30.00
7254;DHT22;4060;49.186;9.226;2023-07-13T15:38:16;30.50;30.00
7254;DHT22;4060;49.186;9.226;2023-07-13T15:40:46;30.50;30.00
7254;DHT22;4060;49.186;9.226;2023-07-13T15:43:18;30.50;30.00
7254;DHT22;4060;49.186;9.226;2023-07-13T15:45:47;30.40;30.00
7254;DHT22;4060;49.186;9.226;2023-07-13T15:48:19;30.40;29.90
7254;DHT22;4060;49.186;9.226;2023-07-13T15:50:51;30.50;30.00
7254;DHT22;4060;49.186;9.226;2023-07-13T15:53:24;30.50;30.00
7254;DHT22;4060;49.186;9.226;2023-07-13T15:55:54;30.50;29.90
7254;DHT22;4060;49.186;9.226;2023-07-13T15:58:26;30.50;29.90
7254;DHT22;4060;49.186;9.226;2023-07-13T16:00:55;30.50;29.70
7254;DHT22;4060;49.186;9.226;2023-07-13T16:03:25;30.50;29.60
7254;DHT22;4060;49.186;9.226;2023-07-13T16:05:55;30.50;29.60
7254;DHT22;4060;49.186;9.226;2023-07-13T16:08:27;30.50;29.60
7254;DHT22;4060;49.186;9.226;2023-07-13T16:11:00;30.50;29.60
7254;DHT22;4060;49.186;9.226;2023-07-13T16:13:31;30.50;29.60
7254;DHT22;4060;49.186;9.226;2023-07-13T16:16:00;30.50;29.60
7254;DHT22;4060;49.186;9.226;2023-07-13T16:18:29;30.50;29.60
7254;DHT22;4060;49.186;9.226;2023-07-13T16:20:59;30.50;29.60
7254;DHT22;4060;49.186;9.226;2023-07-13T16:23:32;30.50;29.50
7254;DHT22;4060;49.186;9.226;2023-07-13T16:26:02;30.60;29.60
7254;DHT22;4060;49.186;9.226;2023-07-13T16:28:34;30.50;29.50
7254;DHT22;4060;49.186;9.226;2023-07-13T16:31:03;30.60;29.50
7254;DHT22;4060;49.186;9.226;2023-07-13T16:33:36;30.60;29.50
7254;DHT22;4060;49.186;9.226;2023-07-13T16:36:11;30.50;29.50
7254;DHT22;4060;49.186;9.226;2023-07-13T16:38:40;30.60;29.40